createdAt,value
2022-11-22T00:01:30.917Z,98194.80
2022-11-22T00:03:57.622Z,98196.91
2022-11-22T00:06:24.338Z,98206.64
2022-11-22T00:08:51.056Z,98204.35
2022-11-22T00:11:17.746Z,98206.05
2022-11-22T00:13:44.469Z,98210.26
2022-11-22T00:16:11.278Z,98210.14
2022-11-22T00:18:38.011Z,98216.17
2022-11-22T00:21:07.820Z,98219.71
2022-11-22T00:23:34.782Z,98221.13
2022-11-22T00:26:01.447Z,98224.05
2022-11-22T00:28:28.191Z,98216.86
2022-11-22T00:30:54.944Z,98201.40
2022-11-22T00:33:21.616Z,98221.78
2022-11-22T00:35:48.364Z,98218.27
2022-11-22T00:38:15.104Z,98231.38
2022-11-22T00:40:41.838Z,98234.88
2022-11-22T00:43:08.569Z,98227.23
2022-11-22T00:45:35.277Z,98221.75
2022-11-22T00:48:01.976Z,98220.45
2022-11-22T00:50:28.661Z,98223.08
2022-11-22T00:52:55.377Z,98221.80
2022-11-22T00:55:22.076Z,98224.71
2022-11-22T00:57:48.805Z,98220.95
2022-11-22T01:00:16.112Z,98227.75
2022-11-22T01:02:42.883Z,98232.05
2022-11-22T01:05:10.714Z,98236.73
2022-11-22T01:07:37.540Z,98237.73
2022-11-22T01:10:04.603Z,98228.13
2022-11-22T01:12:31.286Z,98227.14
2022-11-22T01:14:57.964Z,98231.10
2022-11-22T01:17:24.680Z,98238.23
2022-11-22T01:19:51.470Z,98242.50
2022-11-22T01:22:18.167Z,98249.54
2022-11-22T01:24:44.942Z,98251.10
2022-11-22T01:27:11.687Z,98249.83
2022-11-22T01:29:38.427Z,98241.33
2022-11-22T01:32:05.446Z,98245.57
2022-11-22T01:34:32.318Z,98253.88
2022-11-22T01:36:58.939Z,98264.11
2022-11-22T01:39:25.655Z,98272.38
2022-11-22T01:41:52.401Z,98273.33
2022-11-22T01:44:29.275Z,98267.29
2022-11-22T01:47:15.405Z,98264.92
2022-11-22T01:49:46.388Z,98266.60
2022-11-22T01:52:16.249Z,98278.33
2022-11-22T01:54:43.300Z,98280.10
2022-11-22T01:57:12.421Z,98275.42
2022-11-22T01:59:40.305Z,98266.59
2022-11-22T02:02:07.057Z,98270.95
2022-11-22T02:04:33.776Z,98278.52
2022-11-22T02:07:32.772Z,98277.36
2022-11-22T02:09:59.491Z,98277.66
2022-11-22T02:12:27.937Z,98277.27
2022-11-22T02:14:55.024Z,98278.47
2022-11-22T02:17:21.712Z,98280.95
2022-11-22T02:19:49.149Z,98287.87
2022-11-22T02:22:21.207Z,98290.38
2022-11-22T02:24:57.387Z,98302.36
2022-11-22T02:27:24.297Z,98302.70
2022-11-22T02:29:50.966Z,98304.28
2022-11-22T02:32:17.762Z,98299.88
2022-11-22T02:34:48.507Z,98296.72
2022-11-22T02:37:18.135Z,98300.92
2022-11-22T02:39:45.011Z,98309.92
2022-11-22T02:42:11.743Z,98315.04
2022-11-22T02:44:38.843Z,98310.90
2022-11-22T02:47:05.524Z,98308.27
2022-11-22T02:49:32.479Z,98310.70
2022-11-22T02:51:59.378Z,98322.91
2022-11-22T02:54:26.095Z,98326.52
2022-11-22T02:56:52.767Z,98326.70
2022-11-22T02:59:19.479Z,98327.28
2022-11-22T03:01:46.330Z,98330.10
2022-11-22T03:04:24.872Z,98327.79
2022-11-22T03:06:53.919Z,98328.23
2022-11-22T03:09:20.661Z,98336.71
2022-11-22T03:11:47.500Z,98346.58
2022-11-22T03:14:15.378Z,98354.55
2022-11-22T03:16:45.530Z,98356.07
2022-11-22T03:19:12.632Z,98346.84
2022-11-22T03:21:40.023Z,98353.48
2022-11-22T03:24:07.101Z,98361.16
2022-11-22T03:26:34.182Z,98369.48
2022-11-22T03:29:01.050Z,98370.13
2022-11-22T03:31:27.789Z,98369.49
2022-11-22T03:33:55.056Z,98364.78
2022-11-22T03:36:21.959Z,98363.80
2022-11-22T03:38:48.621Z,98367.05
2022-11-22T03:41:15.370Z,98369.39
2022-11-22T03:43:42.099Z,98368.52
2022-11-22T03:46:13.889Z,98371.65
2022-11-22T03:48:40.577Z,98376.29
2022-11-22T03:51:07.347Z,98372.80
2022-11-22T03:53:34.145Z,98382.61
2022-11-22T03:57:25.329Z,98392.59
2022-11-22T03:59:52.092Z,98401.52
2022-11-22T04:02:18.817Z,98408.35
2022-11-22T04:04:45.571Z,98407.45
2022-11-22T04:07:12.344Z,98401.75
2022-11-22T04:09:39.151Z,98398.70
2022-11-22T04:12:05.930Z,98399.84
2022-11-22T04:14:51.532Z,98407.92
2022-11-22T04:17:38.204Z,98407.31
2022-11-22T04:20:31.652Z,98403.04
2022-11-22T04:23:08.818Z,98386.11
2022-11-22T04:25:36.743Z,98390.88
2022-11-22T04:28:04.463Z,98385.61
2022-11-22T04:30:49.749Z,98388.77
2022-11-22T04:33:16.525Z,98401.13
2022-11-22T04:35:43.982Z,98411.48
2022-11-22T04:38:11.043Z,98423.61
2022-11-22T04:40:38.226Z,98428.89
2022-11-22T04:43:24.487Z,98429.25
2022-11-22T04:45:51.399Z,98424.52
2022-11-22T04:48:18.108Z,98422.92
2022-11-22T04:51:03.834Z,98428.46
2022-11-22T04:53:30.635Z,98431.34
2022-11-22T04:55:57.355Z,98438.48
2022-11-22T04:58:24.205Z,98436.67
2022-11-22T05:00:50.989Z,98437.13
2022-11-22T05:03:17.837Z,98438.48
2022-11-22T05:05:44.864Z,98443.25
2022-11-22T05:08:11.884Z,98455.12
2022-11-22T05:10:56.804Z,98456.16
2022-11-22T05:13:27.940Z,98457.19
2022-11-22T05:15:54.812Z,98464.00
2022-11-22T05:18:21.671Z,98471.27
2022-11-22T05:20:48.428Z,98468.52
2022-11-22T05:23:33.752Z,98467.61
2022-11-22T05:26:00.581Z,98466.61
2022-11-22T05:28:27.952Z,98465.74
2022-11-22T05:30:55.429Z,98464.70
2022-11-22T05:33:22.590Z,98460.91
2022-11-22T05:35:49.346Z,98465.52
2022-11-22T05:38:16.101Z,98463.78
2022-11-22T05:40:42.781Z,98461.31
2022-11-22T05:43:09.521Z,98461.23
2022-11-22T05:45:36.217Z,98465.56
2022-11-22T05:48:02.996Z,98470.01
2022-11-22T05:50:29.604Z,98476.30
2022-11-22T05:53:00.709Z,98475.77
2022-11-22T05:55:27.848Z,98471.66
2022-11-22T05:57:54.553Z,98481.33
2022-11-22T06:00:21.418Z,98481.00
2022-11-22T06:02:48.108Z,98489.74
2022-11-22T06:05:15.011Z,98490.58
2022-11-22T06:07:41.665Z,98496.66
2022-11-22T06:10:08.853Z,98506.56
2022-11-22T06:12:35.626Z,98506.23
2022-11-22T06:15:02.359Z,98506.70
2022-11-22T06:17:29.102Z,98516.04
2022-11-22T06:19:57.978Z,98520.61
2022-11-22T06:22:28.033Z,98522.58
2022-11-22T06:24:54.978Z,98530.27
2022-11-22T06:27:21.700Z,98529.24
2022-11-22T06:29:48.412Z,98532.61
2022-11-22T06:32:15.151Z,98530.23
2022-11-22T06:34:41.863Z,98531.77
2022-11-22T06:37:08.565Z,98539.55
2022-11-22T06:39:35.978Z,98536.02
2022-11-22T06:42:02.703Z,98537.33
2022-11-22T06:44:29.421Z,98534.35
2022-11-22T06:46:56.144Z,98536.42
2022-11-22T06:49:22.848Z,98533.30
2022-11-22T06:51:49.544Z,98531.05
2022-11-22T06:54:16.276Z,98544.77
2022-11-22T06:56:43.026Z,98551.20
2022-11-22T06:59:09.799Z,98559.69
2022-11-22T07:01:37.261Z,98556.48
2022-11-22T07:04:04.504Z,98548.95
2022-11-22T07:06:35.825Z,98558.71
2022-11-22T07:09:03.153Z,98564.39
2022-11-22T07:11:30.870Z,98567.38
2022-11-22T07:14:03.565Z,98566.02
2022-11-22T07:16:34.242Z,98569.55
2022-11-22T07:19:01.056Z,98570.86
2022-11-22T07:21:27.772Z,98572.67
2022-11-22T07:23:55.460Z,98573.49
2022-11-22T07:26:23.050Z,98573.20
2022-11-22T07:28:49.772Z,98578.09
2022-11-22T07:31:17.256Z,98585.11
2022-11-22T07:33:44.191Z,98590.17
2022-11-22T07:36:15.708Z,98595.06
2022-11-22T07:38:42.620Z,98601.81
2022-11-22T07:41:09.420Z,98604.98
2022-11-22T07:43:36.209Z,98609.67
2022-11-22T07:46:06.705Z,98604.27
2022-11-22T07:48:33.527Z,98603.89
2022-11-22T07:51:06.596Z,98599.06
2022-11-22T07:53:33.941Z,98593.59
2022-11-22T07:56:04.335Z,98594.63
2022-11-22T07:58:31.400Z,98598.03
2022-11-22T08:00:58.218Z,98603.59
2022-11-22T08:03:28.993Z,98608.61
2022-11-22T08:06:00.779Z,98608.32
2022-11-22T08:08:27.817Z,98606.39
2022-11-22T08:10:54.624Z,98602.93
2022-11-22T08:13:21.233Z,98605.77
2022-11-22T08:15:49.539Z,98607.63
2022-11-22T08:18:16.496Z,98611.03
2022-11-22T08:20:43.202Z,98616.52
2022-11-22T08:23:10.031Z,98613.59
2022-11-22T08:25:36.668Z,98613.44
2022-11-22T08:28:03.405Z,98614.26
2022-11-22T08:30:30.108Z,98605.41
2022-11-22T08:32:56.927Z,98607.71
2022-11-22T08:35:23.685Z,98610.43
2022-11-22T08:37:50.407Z,98608.95
2022-11-22T08:40:17.117Z,98613.02
2022-11-22T08:42:43.838Z,98611.81
2022-11-22T08:45:10.642Z,98613.83
2022-11-22T08:47:37.374Z,98618.02
2022-11-22T08:50:04.527Z,98620.33
2022-11-22T08:52:31.252Z,98628.56
2022-11-22T08:54:57.949Z,98618.50
2022-11-22T08:57:24.688Z,98618.13
2022-11-22T08:59:51.426Z,98619.42
2022-11-22T09:02:18.155Z,98619.80
2022-11-22T09:04:44.872Z,98623.58
2022-11-22T09:09:58.550Z,98622.66
2022-11-22T09:12:25.254Z,98622.67
2022-11-22T09:14:52.129Z,98621.90
2022-11-22T09:17:18.832Z,98621.04
2022-11-22T09:19:45.581Z,98627.33
2022-11-22T09:22:12.396Z,98630.55
2022-11-22T09:24:39.078Z,98634.29
2022-11-22T09:27:06.352Z,98630.14
2022-11-22T09:29:33.380Z,98633.36
2022-11-22T09:32:00.208Z,98638.09
2022-11-22T09:34:26.941Z,98635.46
2022-11-22T09:36:53.688Z,98644.14
2022-11-22T09:39:20.379Z,98648.58
2022-11-22T09:41:51.640Z,98649.58
2022-11-22T09:44:36.556Z,98651.38
2022-11-22T09:47:25.423Z,98647.38
2022-11-22T09:50:29.674Z,98644.05
2022-11-22T09:53:03.663Z,98647.15
2022-11-22T09:55:34.899Z,98653.89
2022-11-22T09:58:33.453Z,98656.08
2022-11-22T10:01:19.402Z,98650.44
2022-11-22T10:03:54.538Z,98655.59
2022-11-22T10:06:24.816Z,98658.46
2022-11-22T10:09:00.779Z,98665.52
2022-11-22T10:11:48.057Z,98675.75
2022-11-22T10:14:25.545Z,98675.93
2022-11-22T10:17:15.456Z,98678.08
2022-11-22T10:19:46.056Z,98670.59
2022-11-22T10:22:13.258Z,98676.61
2022-11-22T10:24:40.610Z,98679.73
2022-11-22T10:27:13.173Z,98679.69
2022-11-22T10:29:52.511Z,98676.85
2022-11-22T10:32:39.106Z,98671.46
2022-11-22T10:35:14.775Z,98673.27
2022-11-22T10:37:54.105Z,98674.36
2022-11-22T10:40:28.112Z,98678.56
2022-11-22T10:43:20.134Z,98679.05
2022-11-22T10:46:07.101Z,98684.08
2022-11-22T10:49:05.778Z,98685.89
2022-11-22T10:51:54.167Z,98680.70
2022-11-22T10:54:25.672Z,98674.91
2022-11-22T10:56:55.146Z,98673.59
2022-11-22T10:59:51.352Z,98672.02
2022-11-22T11:02:32.499Z,98674.11
2022-11-22T11:04:59.520Z,98670.64
2022-11-22T11:07:26.270Z,98671.88
2022-11-22T11:10:11.467Z,98672.98
2022-11-22T11:12:41.676Z,98676.40
2022-11-22T11:15:23.092Z,98673.64
2022-11-22T11:17:53.720Z,98680.27
2022-11-22T11:20:27.262Z,98680.42
2022-11-22T11:25:42.768Z,98685.00
2022-11-22T11:28:19.668Z,98686.48
2022-11-22T11:30:48.295Z,98691.25
2022-11-22T11:33:29.142Z,98693.89
2022-11-22T11:36:16.947Z,98683.69
2022-11-22T11:38:43.652Z,98692.00
2022-11-22T11:41:25.625Z,98695.52
2022-11-22T11:43:54.199Z,98698.40
2022-11-22T11:46:25.697Z,98694.70
2022-11-22T11:48:53.794Z,98689.02
2022-11-22T11:51:20.520Z,98694.13
2022-11-22T11:53:59.266Z,98690.70
2022-11-22T11:56:56.098Z,98690.30
2022-11-22T11:59:32.548Z,98692.89
2022-11-22T12:02:14.593Z,98698.70
2022-11-22T12:04:52.361Z,98700.88
2022-11-22T12:07:25.627Z,98705.89
2022-11-22T12:09:56.179Z,98706.42
2022-11-22T12:12:48.945Z,98703.83
2022-11-22T12:15:26.212Z,98701.57
2022-11-22T12:17:54.647Z,98707.50
2022-11-22T12:20:28.147Z,98713.75
2022-11-22T12:23:00.262Z,98721.89
2022-11-22T12:25:36.206Z,98733.18
2022-11-22T12:28:23.893Z,98739.27
2022-11-22T12:30:56.485Z,98743.02
2022-11-22T12:33:33.041Z,98742.74
2022-11-22T12:35:59.762Z,98744.88
2022-11-22T12:38:44.845Z,98746.27
2022-11-22T12:41:13.833Z,98746.84
2022-11-22T12:43:51.399Z,98750.34
2022-11-22T12:46:26.448Z,98751.04
2022-11-22T12:49:03.161Z,98748.45
2022-11-22T12:51:50.997Z,98742.02
2022-11-22T12:54:20.179Z,98743.98
2022-11-22T12:56:54.802Z,98746.61
2022-11-22T12:59:25.636Z,98744.13
2022-11-22T13:02:01.242Z,98747.79
2022-11-22T13:04:59.153Z,98749.65
2022-11-22T13:07:31.973Z,98755.73
2022-11-22T13:10:02.103Z,98755.09
2022-11-22T13:12:32.035Z,98753.94
2022-11-22T13:14:58.963Z,98758.34
2022-11-22T13:17:26.977Z,98767.04
2022-11-22T13:20:06.917Z,98768.52
2022-11-22T13:22:58.244Z,98759.69
2022-11-22T13:25:52.262Z,98751.31
2022-11-22T13:28:21.314Z,98751.28
2022-11-22T13:31:23.643Z,98755.11
2022-11-22T13:33:57.063Z,98767.67
2022-11-22T13:36:29.881Z,98769.77
2022-11-22T13:39:04.429Z,98773.96
2022-11-22T13:41:51.472Z,98776.33
2022-11-22T13:44:26.413Z,98778.58
2022-11-22T13:46:53.402Z,98781.83
2022-11-22T18:34:13.818Z,98845.74
2022-11-22T18:37:01.381Z,98844.86
2022-11-22T18:39:29.369Z,98845.79
2022-11-22T18:41:56.730Z,98850.17
2022-11-22T18:44:23.442Z,98849.79
2022-11-22T18:46:50.244Z,98853.20
2022-11-22T18:49:16.926Z,98853.45
2022-11-22T18:51:43.690Z,98846.83
2022-11-22T18:54:10.621Z,98852.84
2022-11-22T18:56:40.346Z,98860.45
2022-11-22T18:59:08.054Z,98862.67
2022-11-22T19:01:35.216Z,98865.19
2022-11-22T19:04:03.076Z,98859.88
2022-11-22T19:06:30.304Z,98857.66
2022-11-22T19:08:57.105Z,98857.34
2022-11-22T19:11:23.833Z,98854.70
2022-11-22T19:13:50.694Z,98854.75
2022-11-22T19:16:18.486Z,98849.72
2022-11-22T19:18:45.294Z,98851.23
2022-11-22T19:21:13.806Z,98854.20
2022-11-22T19:23:41.213Z,98856.45
2022-11-22T19:26:09.660Z,98855.02
2022-11-22T19:28:36.680Z,98853.79
2022-11-22T19:31:04.154Z,98851.72
2022-11-22T19:33:30.992Z,98849.96
2022-11-22T19:35:58.270Z,98854.58
2022-11-22T19:38:25.489Z,98855.46
2022-11-22T19:40:53.091Z,98859.75
2022-11-22T19:43:19.923Z,98863.26
2022-11-22T19:45:46.596Z,98859.86
2022-11-22T19:48:13.886Z,98870.05
2022-11-22T19:50:40.871Z,98870.48
2022-11-22T19:53:07.716Z,98879.01
2022-11-22T19:55:34.465Z,98889.11
2022-11-22T19:58:01.229Z,98894.20
2022-11-22T20:00:28.132Z,98903.38
2022-11-22T20:02:54.894Z,98900.98
2022-11-22T20:05:21.653Z,98909.34
2022-11-22T20:07:48.585Z,98908.70
2022-11-22T20:10:15.538Z,98912.52
2022-11-22T20:12:45.362Z,98916.19
2022-11-22T20:15:12.102Z,98922.77
2022-11-22T20:17:38.833Z,98928.59
2022-11-22T20:20:07.063Z,98937.36
2022-11-22T20:22:33.924Z,98937.89
2022-11-22T20:25:00.627Z,98939.15
2022-11-22T20:27:28.142Z,98939.90
2022-11-22T20:29:54.965Z,98941.48
2022-11-22T20:32:23.075Z,98941.69
2022-11-22T20:34:49.711Z,98946.70
2022-11-22T20:37:18.671Z,98947.02
2022-11-22T20:39:45.374Z,98944.15
2022-11-22T20:42:33.568Z,98948.27
2022-11-22T20:44:58.796Z,98948.02
2022-11-22T20:47:25.551Z,98949.62
2022-11-22T20:49:52.268Z,98953.28
2022-11-22T20:52:19.089Z,98952.30
2022-11-22T20:54:45.735Z,98960.77
2022-11-22T20:57:12.506Z,98968.46
2022-11-22T20:59:39.290Z,98973.70
2022-11-22T21:02:09.209Z,98975.50
2022-11-22T21:04:36.480Z,98979.02
2022-11-22T21:07:03.452Z,98979.33
2022-11-22T21:09:30.288Z,98973.60
2022-11-22T21:11:57.027Z,98977.61
2022-11-22T21:14:23.746Z,98980.98
2022-11-22T21:16:50.443Z,98980.92
2022-11-22T21:19:17.808Z,98981.23
2022-11-22T21:21:44.525Z,98978.38
2022-11-22T21:24:11.455Z,98987.77
2022-11-22T21:26:38.071Z,98995.45
2022-11-22T21:29:11.543Z,98995.66
2022-11-22T21:31:42.493Z,99002.45
2022-11-22T21:34:09.197Z,99002.32
2022-11-22T21:36:35.874Z,99002.77
2022-11-22T21:39:02.574Z,99003.89
2022-11-22T21:41:39.735Z,99006.06
2022-11-22T21:44:07.743Z,99006.55
2022-11-22T21:46:34.499Z,98999.02
2022-11-22T21:49:01.231Z,99006.05
2022-11-22T21:51:28.052Z,99000.23
2022-11-22T21:53:58.563Z,99001.89
2022-11-22T21:56:25.828Z,99007.06
2022-11-22T21:58:52.553Z,99006.19
2022-11-22T22:01:19.351Z,99016.00
2022-11-22T22:03:46.092Z,99013.96
2022-11-22T22:06:12.795Z,99013.70
2022-11-22T22:08:40.806Z,99014.33
2022-11-22T22:11:07.659Z,99012.19
2022-11-22T22:13:34.461Z,99010.39
2022-11-22T22:16:03.530Z,99012.61
2022-11-22T22:18:34.579Z,99017.00
2022-11-22T22:21:02.400Z,99013.77
2022-11-22T22:23:29.241Z,99012.29
2022-11-22T22:26:02.687Z,99014.34
2022-11-22T22:28:33.448Z,99019.56
2022-11-22T22:31:07.405Z,99018.14
2022-11-22T22:33:35.087Z,99015.23
2022-11-22T22:36:01.959Z,99022.08
2022-11-22T22:38:31.613Z,99022.07
2022-11-22T22:41:00.066Z,99018.48
2022-11-22T22:43:30.364Z,99019.41
2022-11-22T22:46:06.219Z,99015.80
2022-11-22T22:48:33.880Z,99019.45
2022-11-22T22:51:20.326Z,99020.41
2022-11-22T22:53:47.196Z,99021.27
2022-11-22T22:56:14.367Z,99026.77
2022-11-22T22:58:41.161Z,99025.70
2022-11-22T23:01:12.817Z,99023.38
2022-11-22T23:03:39.636Z,99025.77
2022-11-22T23:06:10.420Z,99021.34
2022-11-22T23:08:37.762Z,99020.43
2022-11-22T23:11:08.902Z,99021.01
2022-11-22T23:13:36.649Z,99023.54
2022-11-22T23:16:07.506Z,99021.64
2022-11-22T23:18:35.358Z,99025.70
2022-11-22T23:21:02.970Z,99027.02
2022-11-22T23:23:29.728Z,99032.61
2022-11-22T23:25:56.518Z,99033.05
2022-11-22T23:28:23.475Z,99034.31
2022-11-22T23:30:50.193Z,99034.56
2022-11-22T23:33:16.914Z,99035.02
2022-11-22T23:35:43.630Z,99041.63
2022-11-22T23:38:10.328Z,99042.41
2022-11-22T23:40:36.999Z,99045.63
2022-11-22T23:43:03.714Z,99043.84
2022-11-22T23:45:30.411Z,99041.56
2022-11-22T23:47:57.130Z,99038.84
2022-11-22T23:50:23.738Z,99043.60
2022-11-22T23:52:56.072Z,99045.38
2022-11-22T23:55:22.817Z,99045.60
2022-11-22T23:57:49.546Z,99042.74
